createdAt,value
2019-04-23T00:00:40.722Z,13.85
2019-04-23T00:01:41.865Z,13.85
2019-04-23T00:02:44.383Z,13.78
2019-04-23T00:03:40.250Z,13.77
2019-04-23T00:04:35.187Z,13.62
2019-04-23T00:05:49.071Z,13.57
2019-04-23T00:06:53.844Z,13.44
2019-04-23T00:07:49.300Z,13.30
2019-04-23T00:08:50.195Z,13.32
2019-04-23T00:09:42.385Z,13.22
2019-04-23T00:10:44.105Z,13.22
2019-04-23T00:11:49.602Z,13.25
2019-04-23T00:12:49.402Z,13.30
2019-04-23T00:13:43.912Z,13.28
2019-04-23T00:14:51.405Z,13.23
2019-04-23T00:15:45.409Z,13.12
2019-04-23T00:16:43.953Z,13.11
2019-04-23T00:17:42.544Z,13.00
2019-04-23T00:18:46.456Z,13.00
2019-04-23T00:19:45.143Z,12.85
2019-04-23T00:20:40.747Z,12.87
2019-04-23T00:22:45.348Z,12.82
2019-04-23T00:23:47.870Z,12.83
2019-04-23T00:25:51.061Z,12.70
2019-04-23T00:26:41.830Z,12.70
2019-04-23T00:27:42.882Z,12.67
2019-04-23T00:28:47.898Z,12.59
2019-04-23T00:29:49.606Z,12.50
2019-04-23T00:31:44.586Z,12.47
2019-04-23T00:32:40.840Z,12.57
2019-04-23T00:33:43.682Z,12.67
2019-04-23T00:34:49.726Z,12.74
2019-04-23T00:37:54.897Z,13.03
2019-04-23T00:39:50.737Z,13.12
2019-04-23T00:40:43.622Z,13.11
2019-04-23T00:41:44.229Z,13.22
2019-04-23T00:42:59.538Z,13.41
2019-04-23T00:43:43.223Z,13.51
2019-04-23T00:44:48.128Z,13.45
2019-04-23T00:45:44.141Z,13.39
2019-04-23T00:46:45.282Z,13.39
2019-04-23T00:47:46.698Z,13.33
2019-04-23T00:49:46.959Z,13.07
2019-04-23T00:50:49.254Z,12.93
2019-04-23T00:51:42.918Z,12.83
2019-04-23T00:52:42.185Z,12.70
2019-04-23T00:53:40.148Z,12.57
2019-04-23T00:55:44.690Z,12.50
2019-04-23T00:56:50.791Z,12.42
2019-04-23T00:57:47.091Z,12.24
2019-04-23T00:58:43.183Z,12.28
2019-04-23T00:59:44.760Z,12.10
2019-04-23T01:02:49.351Z,11.98
2019-04-23T01:03:39.434Z,11.99
2019-04-23T01:05:42.240Z,11.85
2019-04-23T01:06:39.065Z,11.83
2019-04-23T01:07:45.825Z,11.80
2019-04-23T01:08:55.418Z,11.76
2019-04-23T01:09:47.393Z,11.75
2019-04-23T01:10:50.948Z,11.67
2019-04-23T01:11:39.186Z,11.72
2019-04-23T01:12:46.117Z,11.72
2019-04-23T01:13:47.468Z,11.72
2019-04-23T01:14:39.262Z,11.85
2019-04-23T01:16:37.417Z,11.98
2019-04-23T01:19:43.923Z,11.86
2019-04-23T01:20:44.447Z,11.82
2019-04-23T01:21:20.586Z,11.76
2019-04-23T01:22:20.992Z,11.69
2019-04-23T01:23:20.731Z,11.72
2019-04-23T01:24:25.052Z,11.60
2019-04-23T01:25:31.005Z,11.60
2019-04-23T01:26:47.972Z,11.55
2019-04-23T01:28:49.662Z,11.57
2019-04-23T01:29:54.588Z,11.52
2019-04-23T01:30:46.830Z,11.47
2019-04-23T01:31:47.523Z,11.52
2019-04-23T01:32:43.665Z,11.42
2019-04-23T01:33:53.151Z,11.39
2019-04-23T01:34:51.969Z,11.43
2019-04-23T01:35:55.785Z,11.39
2019-04-23T01:36:42.940Z,11.32
2019-04-23T01:38:46.159Z,11.28
2019-04-23T01:39:49.891Z,11.29
2019-04-23T01:40:41.154Z,11.29
2019-04-23T01:41:50.722Z,11.28
2019-04-23T01:43:01.809Z,11.25
2019-04-23T01:43:47.721Z,11.27
2019-04-23T01:44:56.404Z,11.18
2019-04-23T01:45:35.842Z,11.14
2019-04-23T01:46:49.277Z,11.25
2019-04-23T01:48:48.600Z,11.02
2019-04-23T01:49:54.318Z,11.06
2019-04-23T01:50:50.133Z,11.06
2019-04-23T01:51:49.664Z,11.10
2019-04-23T01:53:45.260Z,11.06
2019-04-23T01:54:50.008Z,11.07
2019-04-23T01:55:46.903Z,11.02
2019-04-23T01:56:39.965Z,11.06
2019-04-23T01:57:56.030Z,11.17
2019-04-23T01:58:44.021Z,11.07
2019-04-23T01:59:49.057Z,11.15
2019-04-23T02:00:47.677Z,11.19
2019-04-23T02:01:58.462Z,11.35
2019-04-23T02:02:49.938Z,11.39
2019-04-23T02:03:50.105Z,11.46
2019-04-23T02:04:47.101Z,11.49
2019-04-23T02:05:48.283Z,11.44
2019-04-23T02:06:45.846Z,11.39
2019-04-23T02:07:50.909Z,11.37
2019-04-23T02:08:50.070Z,11.35
2019-04-23T02:09:52.887Z,11.46
2019-04-23T02:10:53.702Z,11.39
2019-04-23T02:11:45.561Z,11.37
2019-04-23T02:12:53.617Z,11.33
2019-04-23T02:13:51.492Z,11.32
2019-04-23T02:14:50.370Z,11.35
2019-04-23T02:15:47.433Z,11.24
2019-04-23T02:16:45.916Z,11.28
2019-04-23T02:17:52.123Z,11.24
2019-04-23T02:18:49.354Z,11.25
2019-04-23T02:20:49.817Z,11.22
2019-04-23T02:21:43.788Z,11.19
2019-04-23T02:23:09.806Z,11.17
2019-04-23T02:23:42.440Z,11.17
2019-04-23T02:24:47.922Z,11.15
2019-04-23T02:26:45.049Z,10.99
2019-04-23T02:27:58.290Z,11.00
2019-04-23T02:31:12.148Z,10.88
2019-04-23T02:33:00.530Z,10.96
2019-04-23T02:34:14.779Z,11.09
2019-04-23T02:36:54.775Z,11.22
2019-04-23T02:38:00.638Z,11.32
2019-04-23T02:39:57.576Z,11.36
2019-04-23T02:41:04.346Z,11.27
2019-04-23T02:42:07.311Z,11.27
2019-04-23T02:43:01.538Z,11.27
2019-04-23T02:44:01.234Z,11.07
2019-04-23T02:46:01.922Z,11.00
2019-04-23T02:46:59.795Z,11.03
2019-04-23T02:48:03.367Z,10.89
2019-04-23T02:48:53.695Z,10.97
2019-04-23T02:50:43.922Z,10.67
2019-04-23T02:52:01.832Z,10.67
2019-04-23T02:52:56.117Z,10.66
2019-04-23T02:54:10.237Z,10.53
2019-04-23T02:54:57.141Z,10.68
2019-04-23T02:56:04.337Z,10.48
2019-04-23T02:56:51.151Z,10.44
2019-04-23T02:57:57.884Z,10.44
2019-04-23T02:58:52.591Z,10.41
2019-04-23T03:00:09.921Z,10.34
2019-04-23T03:01:06.467Z,10.29
2019-04-23T03:01:53.892Z,10.30
2019-04-23T03:04:58.355Z,10.20
2019-04-23T03:05:54.928Z,10.18
2019-04-23T03:06:55.959Z,10.14
2019-04-23T03:07:53.277Z,10.09
2019-04-23T03:09:51.810Z,10.08
2019-04-23T03:11:02.523Z,10.09
2019-04-23T03:13:54.331Z,10.08
2019-04-23T03:15:15.159Z,9.96
2019-04-23T03:17:59.396Z,9.84
2019-04-23T03:21:05.820Z,9.81
2019-04-23T03:23:03.640Z,9.83
2019-04-23T03:24:04.464Z,9.83
2019-04-23T03:25:56.560Z,9.84
2019-04-23T03:27:12.858Z,9.83
2019-04-23T03:27:45.990Z,9.84
2019-04-23T03:29:54.930Z,9.86
2019-04-23T03:32:34.183Z,9.83
2019-04-23T03:34:41.107Z,9.83
2019-04-23T03:38:48.383Z,9.79
2019-04-23T03:39:56.856Z,9.83
2019-04-23T03:41:02.469Z,9.75
2019-04-23T03:41:53.875Z,9.84
2019-04-23T03:43:07.921Z,9.86
2019-04-23T03:44:06.683Z,9.89
2019-04-23T03:46:12.215Z,9.84
2019-04-23T03:47:48.128Z,9.84
2019-04-23T03:48:51.180Z,9.94
2019-04-23T03:50:02.190Z,9.96
2019-04-23T03:50:44.045Z,9.84
2019-04-23T03:52:09.097Z,9.86
2019-04-23T03:52:57.273Z,9.86
2019-04-23T03:54:48.703Z,9.75
2019-04-23T03:55:54.652Z,9.84
2019-04-23T03:57:13.450Z,9.79
2019-04-23T03:57:43.413Z,9.81
2019-04-23T03:58:51.314Z,9.72
2019-04-23T04:00:58.386Z,9.87
2019-04-23T04:01:58.118Z,9.79
2019-04-23T04:03:03.748Z,9.97
2019-04-23T04:04:55.071Z,9.99
2019-04-23T04:07:10.505Z,9.96
2019-04-23T04:08:05.032Z,9.89
2019-04-23T04:09:03.132Z,9.99
2019-04-23T04:09:53.861Z,9.96
2019-04-23T04:11:09.630Z,9.94
2019-04-23T04:11:44.962Z,9.83
2019-04-23T04:12:46.018Z,9.84
2019-04-23T04:14:54.596Z,9.84
2019-04-23T04:15:55.245Z,9.81
2019-04-23T04:16:49.748Z,9.86
2019-04-23T04:18:01.845Z,9.84
2019-04-23T04:18:57.209Z,9.81
2019-04-23T04:19:59.892Z,9.78
2019-04-23T04:21:09.549Z,9.79
2019-04-23T04:22:00.322Z,9.71
2019-04-23T04:23:02.775Z,9.83
2019-04-23T04:24:11.229Z,9.72
2019-04-23T04:24:48.157Z,9.72
2019-04-23T04:26:07.102Z,9.74
2019-04-23T04:27:03.563Z,9.71
2019-04-23T04:28:54.894Z,9.72
2019-04-23T04:30:49.291Z,9.68
2019-04-23T04:31:52.310Z,9.60
2019-04-23T04:35:12.567Z,9.69
2019-04-23T04:35:47.482Z,9.72
2019-04-23T04:37:24.302Z,9.72
2019-04-23T04:38:54.483Z,9.75
2019-04-23T04:40:12.332Z,9.66
2019-04-23T04:40:57.268Z,9.81
2019-04-23T04:41:58.734Z,9.79
2019-04-23T04:43:09.283Z,9.79
2019-04-23T04:46:04.959Z,9.89
2019-04-23T04:46:50.128Z,9.87
2019-04-23T04:49:01.610Z,9.96
2019-04-23T04:51:06.101Z,10.12
2019-04-23T04:52:01.110Z,10.09
2019-04-23T04:53:12.602Z,10.18
2019-04-23T04:54:09.623Z,10.17
2019-04-23T04:54:42.320Z,10.25
2019-04-23T04:55:54.884Z,10.33
2019-04-23T04:56:58.159Z,10.38
2019-04-23T04:58:55.756Z,10.56
2019-04-23T05:01:03.631Z,10.70
2019-04-23T05:03:36.403Z,10.76
2019-04-23T05:06:08.018Z,11.00
2019-04-23T05:07:04.212Z,11.03
2019-04-23T05:07:48.200Z,11.06
2019-04-23T05:08:54.494Z,11.09
2019-04-23T05:11:04.667Z,11.17
2019-04-23T05:11:54.171Z,11.11
2019-04-23T05:12:45.255Z,11.19
2019-04-23T05:15:50.212Z,11.28
2019-04-23T05:16:52.832Z,11.37
2019-04-23T05:17:59.330Z,11.39
2019-04-23T05:18:47.088Z,11.46
2019-04-23T05:20:54.836Z,11.51
2019-04-23T05:21:54.926Z,11.62
2019-04-23T05:23:02.768Z,11.73
2019-04-23T05:25:47.904Z,11.86
2019-04-23T05:26:39.511Z,11.91
2019-04-23T05:27:56.513Z,11.95
2019-04-23T05:28:55.642Z,12.14
2019-04-23T05:29:46.226Z,12.13
2019-04-23T05:31:02.351Z,12.28
2019-04-23T05:31:42.158Z,12.38
2019-04-23T05:32:50.413Z,12.39
2019-04-23T05:33:47.662Z,12.39
2019-04-23T05:34:46.703Z,12.50
2019-04-23T05:36:08.894Z,12.54
2019-04-23T05:36:52.069Z,12.62
2019-04-23T05:37:59.063Z,12.68
2019-04-23T05:38:50.792Z,12.86
2019-04-23T05:39:52.155Z,13.08
2019-04-23T05:40:53.708Z,13.26
2019-04-23T05:41:41.712Z,13.46
2019-04-23T05:42:49.396Z,13.71
2019-04-23T05:43:46.459Z,14.22
2019-04-23T05:47:07.194Z,15.07
2019-04-23T05:47:48.243Z,15.27
2019-04-23T05:48:45.582Z,15.54
2019-04-23T05:49:47.640Z,15.92
2019-04-23T05:50:51.872Z,16.35
2019-04-23T05:51:50.899Z,17.01
2019-04-23T05:52:45.930Z,17.56
2019-04-23T05:53:46.661Z,18.03
2019-04-23T05:54:52.309Z,17.59
2019-04-23T05:55:49.394Z,18.17
2019-04-23T05:56:49.031Z,18.95
2019-04-23T05:57:47.054Z,19.40
2019-04-23T05:58:47.013Z,20.13
2019-04-23T05:59:42.214Z,20.54
2019-04-23T06:00:51.023Z,20.95
2019-04-23T06:01:53.991Z,21.35
2019-04-23T06:02:53.046Z,21.01
2019-04-23T06:03:52.625Z,21.35
2019-04-23T06:04:43.146Z,21.68
2019-04-23T06:05:46.573Z,21.86
2019-04-23T06:07:04.713Z,21.62
2019-04-23T06:08:48.460Z,22.17
2019-04-23T06:09:49.905Z,22.31
2019-04-23T06:10:54.164Z,22.35
2019-04-23T06:12:45.349Z,21.79
2019-04-23T06:13:56.322Z,21.69
2019-04-23T06:14:48.763Z,20.80
2019-04-23T06:15:46.629Z,20.79
2019-04-23T06:18:02.326Z,21.61
2019-04-23T06:18:47.920Z,21.98
2019-04-23T06:19:48.386Z,22.24
2019-04-23T06:20:48.791Z,22.28
2019-04-23T06:21:57.516Z,21.86
2019-04-23T06:24:41.547Z,22.05
2019-04-23T06:25:57.680Z,21.98
2019-04-23T06:26:45.834Z,21.98
2019-04-23T06:27:49.490Z,21.98
2019-04-23T06:28:44.158Z,21.32
2019-04-23T06:29:57.733Z,21.22
2019-04-23T06:30:46.770Z,21.09
2019-04-23T06:31:50.937Z,20.98
2019-04-23T06:32:42.977Z,21.19
2019-04-23T06:34:03.825Z,21.04
2019-04-23T06:34:42.795Z,20.42
2019-04-23T06:35:47.022Z,20.05
2019-04-23T06:36:44.477Z,20.01
2019-04-23T06:38:04.840Z,19.78
2019-04-23T06:38:58.844Z,19.66
2019-04-23T06:39:48.081Z,19.77
2019-04-23T06:40:47.606Z,19.88
2019-04-23T06:41:44.880Z,20.43
2019-04-23T06:42:49.859Z,20.32
2019-04-23T06:43:56.394Z,20.29
2019-04-23T06:44:44.972Z,20.08
2019-04-23T06:46:01.535Z,19.95
2019-04-23T06:46:50.563Z,19.84
2019-04-23T06:47:46.402Z,18.98
2019-04-23T06:48:45.455Z,18.54
2019-04-23T06:49:45.029Z,18.92
2019-04-23T06:50:52.996Z,18.99
2019-04-23T06:51:56.574Z,18.70
2019-04-23T06:52:31.923Z,18.76
2019-04-23T06:53:45.351Z,18.81
2019-04-23T06:54:49.316Z,19.13
2019-04-23T06:55:47.128Z,19.10
2019-04-23T06:56:51.097Z,19.22
2019-04-23T06:57:44.247Z,18.94
2019-04-23T06:58:43.422Z,18.63
2019-04-23T06:59:43.343Z,18.65
2019-04-23T07:01:53.193Z,18.30
2019-04-23T07:02:47.378Z,18.42
2019-04-23T07:03:43.819Z,18.55
2019-04-23T07:04:49.651Z,18.65
2019-04-23T07:05:53.482Z,18.69
2019-04-23T07:06:46.896Z,18.37
2019-04-23T07:07:55.153Z,18.15
2019-04-23T07:09:40.156Z,18.36
2019-04-23T07:10:55.503Z,18.45
2019-04-23T07:11:40.205Z,18.29
2019-04-23T07:12:55.774Z,18.25
2019-04-23T07:13:56.420Z,18.27
2019-04-23T07:15:00.854Z,18.33
2019-04-23T07:15:50.097Z,18.25
2019-04-23T07:16:38.440Z,18.29
2019-04-23T07:17:42.801Z,18.47
2019-04-23T07:18:43.470Z,18.67
2019-04-23T07:19:44.978Z,18.67
2019-04-23T07:20:40.583Z,18.81
2019-04-23T07:21:41.817Z,18.69
2019-04-23T07:22:42.853Z,18.72
2019-04-23T07:23:53.917Z,18.72
2019-04-23T07:24:43.661Z,18.95
2019-04-23T07:25:40.407Z,19.07
2019-04-23T07:26:45.361Z,19.14
2019-04-23T07:27:43.230Z,19.40
2019-04-23T07:28:50.399Z,19.43
2019-04-23T07:29:40.889Z,19.47
2019-04-23T07:30:38.362Z,19.33
2019-04-23T07:32:44.829Z,19.13
2019-04-23T07:33:50.655Z,19.32
2019-04-23T07:34:49.758Z,19.39
2019-04-23T07:35:49.479Z,19.66
2019-04-23T07:36:41.070Z,19.81
2019-04-23T07:37:51.699Z,20.13
2019-04-23T07:39:01.544Z,20.43
2019-04-23T07:39:45.642Z,20.84
2019-04-23T07:40:40.579Z,20.87
2019-04-23T07:41:47.860Z,20.99
2019-04-23T07:42:41.906Z,20.61
2019-04-23T07:43:52.458Z,21.06
2019-04-23T07:45:44.645Z,22.15
2019-04-23T07:46:56.288Z,22.61
2019-04-23T07:47:41.781Z,23.00
2019-04-23T07:48:43.792Z,23.65
2019-04-23T07:49:49.131Z,23.60
2019-04-23T07:50:44.124Z,24.20
2019-04-23T07:51:46.897Z,24.31
2019-04-23T07:52:50.664Z,24.45
2019-04-23T07:53:46.536Z,23.75
2019-04-23T07:54:51.286Z,24.10
2019-04-23T07:55:49.628Z,24.52
2019-04-23T07:56:47.684Z,24.78
2019-04-23T07:57:41.919Z,24.98
2019-04-23T07:58:44.785Z,24.61
2019-04-23T07:59:50.178Z,22.79
2019-04-23T08:01:39.220Z,22.80
2019-04-23T08:03:08.706Z,23.17
2019-04-23T08:03:45.993Z,23.80
2019-04-23T08:04:56.808Z,23.69
2019-04-23T08:05:39.682Z,24.28
2019-04-23T08:06:50.657Z,24.68
2019-04-23T08:07:47.273Z,25.36
2019-04-23T08:08:47.484Z,25.57
2019-04-23T08:09:48.130Z,25.23
2019-04-23T08:11:12.046Z,24.02
2019-04-23T08:11:58.019Z,23.70
2019-04-23T08:12:46.912Z,23.69
2019-04-23T08:13:48.907Z,23.47
2019-04-23T08:14:51.571Z,22.85
2019-04-23T08:15:43.371Z,22.54
2019-04-23T08:16:43.843Z,22.10
2019-04-23T08:17:41.549Z,21.98
2019-04-23T08:18:49.327Z,20.99
2019-04-23T08:19:49.906Z,20.99
2019-04-23T08:20:49.030Z,21.04
2019-04-23T08:21:39.982Z,20.84
2019-04-23T08:22:53.772Z,20.47
2019-04-23T08:23:42.552Z,20.72
2019-04-23T08:24:52.101Z,20.79
2019-04-23T08:26:00.486Z,20.79
2019-04-23T08:27:43.648Z,20.97
2019-04-23T08:28:58.385Z,20.92
2019-04-23T08:29:41.043Z,21.29
2019-04-23T08:30:49.925Z,21.35
2019-04-23T08:31:45.115Z,21.67
2019-04-23T08:32:45.232Z,21.28
2019-04-23T08:33:49.909Z,21.50
2019-04-23T08:34:45.122Z,21.86
2019-04-23T08:35:48.598Z,21.90
2019-04-23T08:37:54.351Z,20.61
2019-04-23T08:38:44.429Z,20.66
2019-04-23T08:39:44.627Z,20.61
2019-04-23T08:40:52.313Z,20.47
2019-04-23T08:41:59.961Z,20.28
2019-04-23T08:43:49.374Z,20.50
2019-04-23T08:44:46.182Z,20.38
2019-04-23T08:45:35.495Z,20.23
2019-04-23T08:46:51.820Z,20.10
2019-04-23T08:47:42.591Z,20.16
2019-04-23T08:48:41.615Z,19.99
2019-04-23T08:49:46.813Z,20.42
2019-04-23T08:52:48.386Z,19.96
2019-04-23T08:53:41.003Z,20.11
2019-04-23T08:54:55.906Z,20.13
2019-04-23T08:56:48.570Z,19.92
2019-04-23T08:57:36.942Z,19.98
2019-04-23T08:58:54.928Z,20.11
2019-04-23T08:59:45.469Z,19.96
2019-04-23T09:00:45.670Z,19.76
2019-04-23T09:01:59.464Z,20.06
2019-04-23T09:02:42.477Z,20.48
2019-04-23T09:03:51.259Z,20.67
2019-04-23T09:05:00.507Z,20.51
2019-04-23T09:05:48.194Z,20.64
2019-04-23T09:06:35.402Z,20.51
2019-04-23T09:07:45.601Z,20.51
2019-04-23T09:09:57.600Z,20.54
2019-04-23T09:11:50.907Z,20.80
2019-04-23T09:12:45.406Z,20.99
2019-04-23T09:13:54.810Z,20.95
2019-04-23T09:14:46.556Z,21.12
2019-04-23T09:15:44.967Z,21.14
2019-04-23T09:16:48.812Z,21.16
2019-04-23T09:17:49.811Z,20.99
2019-04-23T09:18:36.882Z,20.97
2019-04-23T09:19:56.288Z,21.28
2019-04-23T09:20:37.805Z,21.17
2019-04-23T09:21:40.537Z,21.24
2019-04-23T09:22:38.601Z,21.38
2019-04-23T09:26:41.025Z,21.71
2019-04-23T09:27:41.970Z,21.72
2019-04-23T09:28:44.806Z,21.68
2019-04-23T09:30:00.806Z,21.68
2019-04-23T09:30:44.886Z,21.88
2019-04-23T09:32:14.863Z,22.35
2019-04-23T09:32:49.174Z,22.55
2019-04-23T09:33:46.643Z,22.52
2019-04-23T09:34:46.520Z,22.30
2019-04-23T09:35:38.954Z,21.92
2019-04-23T09:36:40.544Z,21.86
2019-04-23T09:38:44.906Z,22.43
2019-04-23T09:39:42.237Z,22.94
2019-04-23T09:40:54.445Z,23.35
2019-04-23T09:41:38.046Z,23.48
2019-04-23T09:42:52.519Z,23.17
2019-04-23T09:43:36.956Z,22.90
2019-04-23T09:44:56.554Z,23.05
2019-04-23T09:45:48.429Z,23.39
2019-04-23T09:46:44.052Z,23.13
2019-04-23T09:47:46.309Z,22.77
2019-04-23T09:48:51.095Z,22.85
2019-04-23T09:49:40.977Z,23.01
2019-04-23T09:50:47.207Z,23.04
2019-04-23T09:51:47.417Z,23.01
2019-04-23T09:52:52.690Z,23.43
2019-04-23T09:53:47.192Z,23.42
2019-04-23T09:54:51.020Z,23.05
2019-04-23T09:55:43.101Z,23.25
2019-04-23T09:56:44.614Z,23.84
2019-04-23T09:57:45.903Z,23.97
2019-04-23T09:58:48.518Z,24.50
2019-04-23T09:59:43.271Z,24.58
2019-04-23T10:01:44.133Z,24.43
2019-04-23T10:02:34.281Z,24.73
2019-04-23T10:03:25.713Z,25.09
2019-04-23T10:04:29.684Z,25.46
2019-04-23T10:05:28.859Z,25.76
2019-04-23T10:06:22.794Z,26.51
2019-04-23T10:07:28.894Z,26.72
2019-04-23T10:08:21.977Z,26.45
2019-04-23T10:09:16.674Z,26.02
2019-04-23T10:10:14.428Z,26.80
2019-04-23T10:11:15.854Z,26.91
2019-04-23T10:12:14.634Z,26.58
2019-04-23T10:13:13.899Z,27.04
2019-04-23T10:14:14.678Z,26.67
2019-04-23T10:15:22.775Z,26.73
2019-04-23T10:16:17.339Z,26.05
2019-04-23T10:17:14.021Z,25.79
2019-04-23T10:18:14.190Z,25.73
2019-04-23T10:19:15.110Z,25.58
2019-04-23T10:20:13.817Z,25.70
2019-04-23T10:21:15.327Z,25.58
2019-04-23T10:22:15.176Z,25.38
2019-04-23T10:23:14.240Z,24.98
2019-04-23T10:24:15.152Z,24.49
2019-04-23T10:25:15.095Z,24.47
2019-04-23T10:26:14.265Z,23.91
2019-04-23T10:27:14.848Z,24.02
2019-04-23T10:28:15.163Z,24.03
2019-04-23T10:29:14.099Z,24.18
2019-04-23T10:30:14.489Z,23.84
2019-04-23T10:31:14.525Z,24.31
2019-04-23T10:32:13.715Z,24.47
2019-04-23T10:33:13.939Z,24.43
2019-04-23T10:34:14.811Z,24.08
2019-04-23T10:35:22.232Z,23.68
2019-04-23T10:36:19.096Z,23.63
2019-04-23T10:37:15.595Z,23.43
2019-04-23T10:38:16.381Z,23.01
2019-04-23T10:39:20.745Z,22.43
2019-04-23T10:40:19.635Z,22.52
2019-04-23T10:41:15.993Z,22.47
2019-04-23T10:42:14.206Z,22.37
2019-04-23T10:43:15.046Z,22.25
2019-04-23T10:44:13.569Z,22.18
2019-04-23T10:45:27.299Z,22.36
2019-04-23T10:46:36.582Z,22.33
2019-04-23T10:47:44.677Z,22.30
2019-04-23T10:48:57.641Z,22.35
2019-04-23T10:50:49.561Z,21.38
2019-04-23T10:52:02.600Z,21.32
2019-04-23T10:52:37.643Z,21.62
2019-04-23T10:54:12.596Z,21.54
2019-04-23T10:57:41.319Z,21.24
2019-04-23T10:58:38.460Z,21.38
2019-04-23T11:00:44.979Z,21.35
2019-04-23T11:01:43.604Z,21.37
2019-04-23T11:02:57.805Z,21.28
2019-04-23T11:04:54.355Z,21.01
2019-04-23T11:05:56.324Z,21.12
2019-04-23T11:06:45.075Z,21.10
2019-04-23T11:07:47.181Z,21.25
2019-04-23T11:08:42.435Z,21.58
2019-04-23T11:09:52.970Z,21.74
2019-04-23T11:10:48.432Z,21.88
2019-04-23T11:11:48.312Z,21.99
2019-04-23T11:17:45.610Z,22.07
2019-04-23T11:18:52.090Z,21.69
2019-04-23T11:19:49.313Z,21.64
2019-04-23T11:20:45.444Z,21.68
2019-04-23T11:21:43.086Z,21.58
2019-04-23T11:22:45.167Z,21.47
2019-04-23T11:23:42.081Z,21.17
2019-04-23T11:24:48.330Z,21.29
2019-04-23T11:25:42.923Z,21.01
2019-04-23T11:26:42.371Z,21.12
2019-04-23T11:27:44.008Z,21.27
2019-04-23T11:28:38.235Z,21.38
2019-04-23T11:29:38.697Z,21.38
2019-04-23T11:33:42.985Z,21.56
2019-04-23T11:38:56.250Z,21.64
2019-04-23T11:39:45.915Z,21.90
2019-04-23T11:40:38.470Z,21.99
2019-04-23T11:42:47.167Z,22.21
2019-04-23T11:43:39.496Z,22.25
2019-04-23T11:44:42.003Z,22.10
2019-04-23T11:45:50.305Z,22.15
2019-04-23T11:48:14.662Z,21.61
2019-04-23T11:48:50.799Z,21.32
2019-04-23T11:53:54.251Z,21.79
2019-04-23T11:55:44.676Z,21.58
2019-04-23T11:57:52.025Z,21.46
2019-04-23T11:58:42.855Z,21.47
2019-04-23T11:59:44.303Z,21.71
2019-04-23T12:00:57.207Z,21.83
2019-04-23T12:02:43.357Z,21.37
2019-04-23T12:03:57.103Z,21.54
2019-04-23T12:04:47.399Z,21.44
2019-04-23T12:05:50.621Z,21.61
2019-04-23T12:06:39.812Z,21.82
2019-04-23T12:09:51.712Z,21.28
2019-04-23T12:10:45.883Z,21.01
2019-04-23T12:12:53.360Z,20.79
2019-04-23T12:13:56.607Z,20.85
2019-04-23T12:16:49.204Z,21.65
2019-04-23T12:17:43.861Z,21.88
2019-04-23T12:20:49.125Z,22.30
2019-04-23T12:21:44.699Z,22.21
2019-04-23T12:22:51.429Z,22.00
2019-04-23T12:23:48.419Z,21.71
2019-04-23T12:25:02.524Z,21.35
2019-04-23T12:26:56.545Z,21.19
2019-04-23T12:27:33.396Z,21.35
2019-04-23T12:28:43.925Z,21.27
2019-04-23T12:30:48.620Z,21.35
2019-04-23T12:31:47.650Z,21.38
2019-04-23T12:32:46.474Z,21.38
2019-04-23T12:33:53.615Z,21.40
2019-04-23T12:34:52.572Z,21.40
2019-04-23T12:35:35.593Z,21.38
2019-04-23T12:36:51.029Z,21.13
2019-04-23T12:37:39.114Z,21.13
2019-04-23T12:38:40.716Z,20.99
2019-04-23T12:39:42.031Z,21.17
2019-04-23T12:40:45.681Z,21.19
2019-04-23T12:41:43.426Z,21.13
2019-04-23T12:43:28.816Z,21.10
2019-04-23T12:44:45.693Z,21.24
2019-04-23T12:45:38.758Z,21.09
2019-04-23T12:46:48.878Z,21.17
2019-04-23T12:47:49.192Z,21.06
2019-04-23T12:48:53.304Z,20.79
2019-04-23T12:53:45.520Z,20.91
2019-04-23T12:55:01.418Z,21.06
2019-04-23T12:55:39.993Z,21.01
2019-04-23T12:56:53.118Z,21.10
2019-04-23T12:57:40.892Z,21.25
2019-04-23T12:58:34.058Z,21.49
2019-04-23T12:59:47.752Z,21.52
2019-04-23T13:01:48.903Z,21.13
2019-04-23T13:02:46.748Z,21.14
2019-04-23T13:06:42.585Z,21.69
2019-04-23T13:08:44.638Z,21.74
2019-04-23T13:09:49.121Z,21.75
2019-04-23T13:10:53.997Z,21.77
2019-04-23T13:11:45.063Z,21.84
2019-04-23T13:12:57.223Z,21.62
2019-04-23T13:13:48.229Z,21.65
2019-04-23T13:14:49.093Z,21.34
2019-04-23T13:15:40.274Z,21.42
2019-04-23T13:16:50.000Z,21.43
2019-04-23T13:17:50.370Z,21.31
2019-04-23T13:19:51.876Z,21.65
2019-04-23T13:20:47.952Z,21.77
2019-04-23T13:24:40.772Z,22.07
2019-04-23T13:25:55.526Z,22.02
2019-04-23T13:26:35.369Z,22.09
2019-04-23T13:27:46.646Z,22.09
2019-04-23T13:28:40.566Z,22.12
2019-04-23T13:29:43.206Z,22.12
2019-04-23T13:31:34.642Z,21.83
2019-04-23T13:32:46.398Z,21.72
2019-04-23T13:33:51.403Z,21.64
2019-04-23T13:34:51.045Z,21.86
2019-04-23T13:36:01.637Z,21.98
2019-04-23T13:37:46.093Z,22.31
2019-04-23T13:39:42.195Z,22.18
2019-04-23T13:41:52.121Z,22.35
2019-04-23T13:42:47.889Z,22.12
2019-04-23T13:43:41.005Z,22.14
2019-04-23T13:44:42.711Z,22.27
2019-04-23T13:46:35.644Z,22.00
2019-04-23T13:47:59.643Z,21.94
2019-04-23T13:48:40.137Z,21.74
2019-04-23T13:49:49.275Z,21.75
2019-04-23T13:51:43.499Z,21.80
2019-04-23T13:55:04.679Z,21.99
2019-04-23T13:55:36.245Z,22.09
2019-04-23T13:57:12.976Z,22.17
2019-04-23T13:58:43.362Z,22.17
2019-04-23T13:59:47.103Z,22.28
2019-04-23T14:00:58.103Z,22.17
2019-04-23T14:04:45.175Z,22.36
2019-04-23T14:05:41.203Z,22.25
2019-04-23T14:06:43.406Z,22.06
2019-04-23T14:07:48.599Z,22.03
2019-04-23T14:08:47.394Z,21.88
2019-04-23T14:09:45.862Z,21.94
2019-04-23T14:10:43.453Z,21.99
2019-04-23T14:11:40.418Z,21.98
2019-04-23T14:13:06.528Z,22.05
2019-04-23T14:13:52.045Z,22.10
2019-04-23T14:14:47.835Z,22.14
2019-04-23T14:15:47.928Z,22.10
2019-04-23T14:18:56.565Z,22.57
2019-04-23T14:19:41.824Z,22.57
2019-04-23T14:20:40.442Z,22.54
2019-04-23T14:21:37.685Z,22.43
2019-04-23T14:23:59.673Z,22.42
2019-04-23T14:25:02.062Z,22.54
2019-04-23T14:25:51.732Z,22.57
2019-04-23T14:27:49.514Z,22.37
2019-04-23T14:29:48.972Z,22.15
2019-04-23T14:30:46.422Z,21.86
2019-04-23T14:33:46.975Z,22.03
2019-04-23T14:34:48.385Z,22.22
2019-04-23T14:35:40.317Z,22.24
2019-04-23T14:36:44.731Z,22.30
2019-04-23T14:37:52.825Z,22.33
2019-04-23T14:39:42.669Z,22.52
2019-04-23T14:40:51.382Z,22.52
2019-04-23T14:42:02.768Z,22.72
2019-04-23T14:43:49.262Z,22.76
2019-04-23T14:44:41.482Z,22.60
2019-04-23T14:46:17.417Z,22.54
2019-04-23T14:46:50.127Z,22.49
2019-04-23T14:48:46.507Z,22.36
2019-04-23T14:49:53.971Z,22.31
2019-04-23T14:50:41.232Z,22.07
2019-04-23T14:52:00.148Z,22.15
2019-04-23T14:52:50.757Z,22.25
2019-04-23T14:53:42.648Z,22.36
2019-04-23T14:55:15.261Z,22.37
2019-04-23T14:55:55.696Z,22.33
2019-04-23T14:57:06.797Z,22.39
2019-04-23T14:59:37.599Z,22.37
2019-04-23T15:00:54.114Z,22.37
2019-04-23T15:01:55.005Z,22.33
2019-04-23T15:02:46.525Z,22.49
2019-04-23T15:03:50.532Z,22.20
2019-04-23T15:04:43.693Z,22.06
2019-04-23T15:05:52.780Z,22.03
2019-04-23T15:06:46.839Z,22.12
2019-04-23T15:09:43.881Z,22.40
2019-04-23T15:11:06.676Z,22.33
2019-04-23T15:11:45.353Z,22.22
2019-04-23T15:13:45.618Z,22.17
2019-04-23T15:14:45.989Z,22.25
2019-04-23T15:15:44.221Z,22.31
2019-04-23T15:17:44.579Z,22.21
2019-04-23T15:18:52.661Z,22.37
2019-04-23T15:19:43.158Z,22.45
2019-04-23T15:20:41.685Z,22.42
2019-04-23T15:21:53.716Z,22.39
2019-04-23T15:22:53.235Z,22.49
2019-04-23T15:24:46.897Z,22.58
2019-04-23T15:25:53.204Z,22.64
2019-04-23T15:28:16.858Z,22.68
2019-04-23T15:29:28.118Z,22.70
2019-04-23T15:30:38.741Z,22.76
2019-04-23T15:32:53.863Z,22.85
2019-04-23T15:33:49.151Z,22.79
2019-04-23T15:34:37.681Z,22.75
2019-04-23T15:38:01.005Z,22.79
2019-04-23T15:38:53.514Z,22.90
2019-04-23T15:39:40.564Z,22.79
2019-04-23T15:41:02.657Z,22.83
2019-04-23T15:41:53.104Z,22.85
2019-04-23T15:42:40.352Z,22.77
2019-04-23T15:43:41.055Z,22.83
2019-04-23T15:44:45.325Z,22.77
2019-04-23T15:46:39.112Z,22.80
2019-04-23T15:47:41.541Z,22.85
2019-04-23T15:48:46.428Z,22.79
2019-04-23T15:50:05.455Z,22.67
2019-04-23T15:51:46.860Z,22.72
2019-04-23T15:52:44.461Z,22.65
2019-04-23T15:54:45.149Z,22.80
2019-04-23T15:55:44.205Z,22.83
2019-04-23T15:56:44.513Z,22.82
2019-04-23T15:58:03.210Z,22.61
2019-04-23T15:58:53.607Z,22.57
2019-04-23T16:00:38.423Z,22.77